Time;durP1;ratioP1;P1;durP2;ratioP2;P2;SDS_P1;SDS_P2;PMS_P1;PMS_P2;Temp;Humidity;BMP_temperature;BMP_pressure;BME280_temperature;BME280_humidity;BME280_pressure;Samples;Min_cycle;Max_cycle;Signal;HPM_P1;HPM_P2
2021/05/02 00:02:18;;;;;;;61.30;34.13;;;;;;;8.98;75.39;99480.83;126156;1096;22739;-59
2021/05/02 00:04:47;;;;;;;63.27;38.07;;;;;;;8.96;75.33;99487.64;126311;1096;27090;-60
2021/05/02 00:07:17;;;;;;;59.93;35.27;;;;;;;8.93;75.42;99483.06;126088;1104;25261;-58
2021/05/02 00:09:46;;;;;;;61.07;35.63;;;;;;;8.95;75.42;99485.35;126269;1104;22875;-58
2021/05/02 00:12:17;;;;;;;66.20;38.67;;;;;;;8.95;75.39;99486.13;126202;1104;23708;-59
2021/05/02 00:14:45;;;;;;;;;;;;;;;8.95;75.27;99482.56;126281;1104;22768;-58
2021/05/02 00:17:15;;;;;;;62.70;35.00;;;;;;;8.96;75.30;99493.20;126183;1104;21458;-61
2021/05/02 00:19:46;;;;;;;66.88;37.60;;;;;;;8.98;74.94;99486.41;126207;1096;27110;-58
2021/05/02 00:22:18;;;;;;;63.33;36.27;;;;;;;8.95;75.42;99491.69;126116;1104;22750;-61
2021/05/02 00:24:49;;;;;;;62.43;36.53;;;;;;;8.95;75.27;99491.69;126268;1096;22794;-60
2021/05/02 00:27:18;;;;;;;63.45;37.00;;;;;;;8.96;75.37;99495.98;126189;1104;22732;-58
2021/05/02 00:29:48;;;;;;;62.37;35.67;;;;;;;8.96;75.44;99484.08;126165;1096;25596;-58
2021/05/02 00:32:18;;;;;;;70.48;38.00;;;;;;;8.96;75.57;99476.50;126233;1096;22750;-60
2021/05/02 00:34:48;;;;;;;62.80;36.13;;;;;;;8.96;75.48;99476.50;126180;1096;24948;-61
2021/05/02 00:37:19;;;;;;;65.03;36.95;;;;;;;8.96;75.29;99467.38;126152;1104;22812;-60
2021/05/02 00:39:49;;;;;;;67.50;39.37;;;;;;;8.97;75.49;99457.79;126184;1096;26210;-58
2021/05/02 00:42:24;;;;;;;58.80;33.60;;;;;;;8.96;75.51;99467.38;126313;1104;23338;-58
2021/05/02 00:45:04;;;;;;;61.93;36.10;;;;;;;8.91;75.66;99452.16;126159;1096;22751;-59
2021/05/02 00:47:36;;;;;;;66.17;38.40;;;;;;;8.90;75.59;99447.83;126144;1101;22777;-58
2021/05/02 00:50:09;;;;;;;63.60;36.83;;;;;;;8.91;75.59;99440.25;126565;1101;22742;-60
2021/05/02 00:53:04;;;;;;;59.47;33.57;;;;;;;8.92;75.75;99450.89;126515;1101;22759;-58
2021/05/02 00:55:42;;;;;;;64.10;37.70;;;;;;;8.90;75.72;99445.05;126488;1097;22698;-60
2021/05/02 00:58:26;;;;;;;63.60;38.03;;;;;;;8.91;75.79;99427.11;126567;1101;22907;-58
2021/05/02 01:00:57;;;;;;;61.30;35.10;;;;;;;8.88;76.01;99419.72;126683;1101;22759;-57
2021/05/02 01:03:29;;;;;;;68.63;38.07;;;;;;;8.85;75.76;99404.01;126428;1101;22806;-58
2021/05/02 01:06:03;;;;;;;65.10;38.00;;;;;;;8.82;75.93;99402.19;126418;1101;24130;-58
2021/05/02 01:08:37;;;;;;;69.73;39.10;;;;;;;8.81;76.18;99388.77;126398;1101;22751;-60
2021/05/02 01:11:10;;;;;;;64.50;36.73;;;;;;;8.79;76.34;99389.23;126565;1101;22761;-59
2021/05/02 01:13:51;;;;;;;59.90;35.13;;;;;;;8.77;76.38;99383.39;126303;1096;26433;-58
2021/05/02 01:16:23;;;;;;;64.40;38.13;;;;;;;8.76;76.43;99369.97;126441;1101;23016;-57
2021/05/02 01:18:55;;;;;;;60.63;35.03;;;;;;;8.75;76.69;99369.20;126448;1096;27587;-59
2021/05/02 01:21:32;;;;;;;59.25;33.75;;;;;;;8.74;76.83;99364.90;126465;1096;22738;-58
2021/05/02 01:24:02;;;;;;;60.60;34.60;;;;;;;8.69;76.91;99348.89;126606;1097;22742;-60
2021/05/02 01:26:32;;;;;;;62.43;37.40;;;;;;;8.68;77.11;99332.69;126395;1101;22918;-58
2021/05/02 01:29:02;;;;;;;61.17;34.10;;;;;;;8.67;77.56;99320.05;126596;1101;23315;-58
2021/05/02 01:31:33;;;;;;;59.25;33.25;;;;;;;8.65;77.48;99301.04;126485;1101;22860;-61
2021/05/02 01:34:03;;;;;;;60.30;34.83;;;;;;;8.62;77.55;99290.90;126624;1101;22741;-60
2021/05/02 01:36:33;;;;;;;59.07;35.17;;;;;;;8.61;77.71;99283.80;126426;1096;22742;-60
2021/05/02 01:39:06;;;;;;;61.83;36.27;;;;;;;8.56;77.77;99290.08;126466;1101;23381;-61
2021/05/02 01:41:36;;;;;;;64.77;36.07;;;;;;;8.51;77.92;99287.20;126543;1101;22787;-61
2021/05/02 01:44:03;;;;;;;;;;;;;;;;;;126534;1101;22755;-60
2021/05/02 01:46:37;;;;;;;66.53;36.40;;;;;;;8.49;78.00;99292.50;126471;1101;21462;-58
2021/05/02 01:49:09;;;;;;;60.23;34.83;;;;;;;8.48;78.31;99288.97;126663;1101;22809;-58
2021/05/02 01:51:39;;;;;;;64.67;37.23;;;;;;;8.46;78.44;99268.45;126600;1101;22918;-58
2021/05/02 01:54:10;;;;;;;68.10;38.17;;;;;;;8.43;78.50;99269.41;126570;1096;22741;-60
2021/05/02 01:56:40;;;;;;;61.10;34.80;;;;;;;8.41;78.89;99260.80;126400;1097;25752;-57
2021/05/02 01:59:13;;;;;;;69.53;41.87;;;;;;;8.38;78.75;99245.10;126408;1097;22762;-61
2021/05/02 02:01:42;;;;;;;69.17;39.50;;;;;;;8.36;78.85;99233.70;127008;1101;22738;-59
2021/05/02 02:04:13;;;;;;;65.83;38.83;;;;;;;8.37;78.76;99232.44;128042;1101;24175;-60
2021/05/02 02:06:43;;;;;;;68.50;39.00;;;;;;;8.36;79.08;99231.66;128125;1101;23323;-61
2021/05/02 02:09:13;;;;;;;63.60;37.15;;;;;;;8.36;79.04;99231.66;126511;1097;27318;-60
2021/05/02 02:11:43;;;;;;;66.85;37.85;;;;;;;8.31;79.30;99224.03;126573;1101;22827;-59
2021/05/02 02:14:12;;;;;;;62.00;37.65;;;;;;;8.29;79.61;99212.64;126518;1101;22967;-59
2021/05/02 02:16:44;;;;;;;69.65;39.90;;;;;;;8.28;79.46;99194.41;126407;1097;25867;-62
2021/05/02 02:19:14;;;;;;;63.37;35.63;;;;;;;8.28;80.96;99186.07;126501;1097;26312;-62
2021/05/02 02:21:48;;;;;;;59.18;35.63;;;;;;;8.23;79.78;99175.64;126377;1096;22827;-60
2021/05/02 02:24:33;;;;;;;66.10;38.33;;;;;;;8.22;79.83;99164.98;126496;1101;22907;-59
2021/05/02 02:27:04;;;;;;;63.40;37.73;;;;;;;8.21;79.93;99158.69;126430;1101;22875;-59
2021/05/02 02:29:37;;;;;;;68.33;39.23;;;;;;;8.19;80.11;99145.25;126480;1101;22761;-63
2021/05/02 02:32:12;;;;;;;60.50;36.67;;;;;;;8.18;80.35;99137.41;126497;1101;22810;-61
2021/05/02 02:34:46;;;;;;;59.03;33.77;;;;;;;8.14;80.87;99134.84;126530;1096;24292;-59
2021/05/02 02:37:19;;;;;;;67.87;38.70;;;;;;;8.13;80.41;99124.23;126675;1101;24508;-58
2021/05/02 02:39:50;;;;;;;67.70;39.20;;;;;;;8.13;80.63;99127.75;126526;1097;25733;-59
2021/05/02 02:42:22;;;;;;;72.23;38.90;;;;;;;8.14;80.68;99109.06;126627;1101;22784;-57
2021/05/02 02:44:55;;;;;;;67.57;38.80;;;;;;;8.12;80.46;99098.44;126528;1101;24434;-60
2021/05/02 02:47:34;;;;;;;64.03;38.23;;;;;;;8.14;80.55;99107.05;126436;1097;22741;-61
2021/05/02 02:50:08;;;;;;;65.07;38.83;;;;;;;8.13;80.88;99111.06;126437;1096;27486;-59
2021/05/02 02:52:44;;;;;;;72.40;40.93;;;;;;;8.11;80.91;99121.91;126609;1096;26006;-58
2021/05/02 02:55:15;;;;;;;62.83;35.57;;;;;;;8.11;81.25;99121.17;126516;1101;24383;-57
2021/05/02 02:57:55;;;;;;;68.80;38.47;;;;;;;8.10;81.22;99114.84;126518;1097;25871;-58
2021/05/02 03:00:26;;;;;;;67.60;37.07;;;;;;;8.09;80.86;99107.74;126577;1101;22902;-57
2021/05/02 03:03:03;;;;;;;67.43;40.60;;;;;;;8.12;80.84;99108.78;126596;1096;26408;-57
2021/05/02 03:05:37;;;;;;;64.00;36.03;;;;;;;8.13;81.21;99110.33;126659;1101;22973;-60
2021/05/02 03:08:08;;;;;;;69.87;38.90;;;;;;;8.12;81.02;99115.11;126432;1101;22878;-60
2021/05/02 03:10:40;;;;;;;68.17;40.30;;;;;;;8.13;81.22;99130.53;126931;1101;22917;-59
2021/05/02 03:13:13;;;;;;;72.20;40.80;;;;;;;8.14;81.11;99134.84;126452;1101;22803;-60
2021/05/02 03:15:43;;;;;;;66.33;38.03;;;;;;;8.17;81.64;99127.55;126502;1096;22751;-59
2021/05/02 03:18:20;;;;;;;67.88;40.63;;;;;;;8.16;81.18;99117.67;126505;1101;22903;-60
2021/05/02 03:20:56;;;;;;;64.83;38.20;;;;;;;8.19;81.25;99108.37;126427;1101;22737;-58
2021/05/02 03:23:32;;;;;;;61.95;35.70;;;;;;;8.21;81.59;99102.30;126543;1101;22741;-59
2021/05/02 03:26:07;;;;;;;58.10;33.83;;;;;;;8.20;81.57;99098.76;126427;1101;22742;-58
2021/05/02 03:28:40;;;;;;;66.87;36.27;;;;;;;8.19;81.49;99103.55;126373;1101;22755;-60
2021/05/02 03:31:13;;;;;;;70.70;39.55;;;;;;;8.18;81.54;99102.03;125933;1101;22765;-59
2021/05/02 03:33:48;;;;;;;60.57;33.57;;;;;;;8.20;81.70;99093.20;126002;1101;22737;-59
2021/05/02 03:36:26;;;;;;;64.40;36.17;;;;;;;8.18;81.56;99090.91;126387;1101;22845;-58
2021/05/02 03:38:56;;;;;;;68.30;37.80;;;;;;;8.21;81.62;99091.95;126477;1101;22726;-58
2021/05/02 03:41:26;;;;;;;63.68;37.90;;;;;;;8.22;81.76;99087.91;126618;1086;23196;-59
2021/05/02 03:43:55;;;;;;;65.13;36.73;;;;;;;8.20;81.49;99082.08;127715;1101;22737;-61
2021/05/02 03:46:25;;;;;;;55.37;32.13;;;;;;;8.21;81.92;99064.16;125765;1096;26165;-59
2021/05/02 03:48:56;;;;;;;63.30;37.08;;;;;;;8.21;82.10;99060.61;125956;1104;24464;-62
2021/05/02 03:51:27;;;;;;;63.10;34.70;;;;;;;8.19;81.99;99058.33;126063;1096;22869;-62
2021/05/02 03:53:57;;;;;;;59.40;34.30;;;;;;;8.19;82.20;99042.38;125608;1101;22760;-60
2021/05/02 03:56:46;;;;;;;59.43;33.70;;;;;;;8.19;82.12;99041.64;126061;1096;26184;-60
2021/05/02 03:59:18;;;;;;;48.50;25.40;;;;;;;8.20;82.33;99023.70;125572;1101;24435;-59
2021/05/02 04:01:52;;;;;;;51.63;29.13;;;;;;;8.21;82.11;99013.34;125782;1101;22903;-60
2021/05/02 04:04:23;;;;;;;54.60;31.73;;;;;;;8.21;81.99;99011.33;125599;1104;22910;-57
2021/05/02 04:06:57;;;;;;;53.40;31.27;;;;;;;8.22;82.27;99015.63;125664;1101;22741;-58
2021/05/02 04:09:28;;;;;;;55.43;31.17;;;;;;;8.22;82.03;99032.30;125469;1104;22762;-58
2021/05/02 04:11:58;;;;;;;49.30;29.03;;;;;;;8.23;82.12;99053.30;125642;1102;24286;-58
2021/05/02 04:14:28;;;;;;;51.17;28.83;;;;;;;8.22;82.23;99054.55;125685;1102;22732;-58
2021/05/02 04:16:59;;;;;;;48.40;26.80;;;;;;;8.21;82.14;99052.27;125739;1096;22738;-57
2021/05/02 04:19:29;;;;;;;55.57;29.90;;;;;;;8.21;82.09;99047.48;125673;1101;24467;-62
2021/05/02 04:21:58;;;;;;;42.53;22.50;;;;;;;8.19;82.75;99056.28;125726;1096;27281;-63
2021/05/02 04:24:28;;;;;;;40.77;24.67;;;;;;;8.16;82.39;99050.95;125547;1104;22800;-63
2021/05/02 04:26:58;;;;;;;43.25;24.25;;;;;;;8.14;82.47;99059.80;125762;1102;22758;-63
2021/05/02 04:29:30;;;;;;;45.03;24.43;;;;;;;8.11;82.51;99071.88;125732;1101;22737;-62
2021/05/02 04:32:01;;;;;;;38.50;20.65;;;;;;;8.07;82.82;99076.13;125714;1102;22803;-63
2021/05/02 04:34:29;;;;;;;;;;;;;;;8.02;82.99;99091.52;125653;1102;22907;-62
2021/05/02 04:36:59;;;;;;;41.10;23.23;;;;;;;7.96;83.12;99087.14;125627;1101;21461;-62
2021/05/02 04:39:29;;;;;;;40.23;21.48;;;;;;;7.90;83.76;99087.06;126152;1101;22885;-64
2021/05/02 04:41:58;;;;;;;41.13;20.25;;;;;;;7.83;83.96;99078.40;125745;1101;22756;-63
2021/05/02 04:44:29;;;;;;;39.55;20.40;;;;;;;7.77;83.71;99075.57;125718;1096;26800;-63
2021/05/02 04:46:58;;;;;;;37.95;19.93;;;;;;;7.74;83.76;99070.23;125713;1101;22722;-63
2021/05/02 04:49:28;;;;;;;35.40;19.95;;;;;;;7.72;83.81;99078.27;125726;1101;22830;-62
2021/05/02 04:51:57;;;;;;;33.20;17.37;;;;;;;7.72;83.98;99081.04;125777;1101;22931;-63
2021/05/02 04:54:27;;;;;;;31.73;16.10;;;;;;;7.71;84.20;99068.42;125583;1101;22755;-62
2021/05/02 04:56:57;;;;;;;27.18;14.18;;;;;;;7.69;84.41;99055.02;125612;1102;22853;-63
2021/05/02 04:59:26;;;;;;;30.13;14.48;;;;;;;7.65;84.65;99043.36;125922;1096;26375;-62
2021/05/02 05:01:55;;;;;;;33.40;15.77;;;;;;;7.64;84.43;99030.72;125721;1096;25973;-62
2021/05/02 05:04:25;;;;;;;30.10;14.17;;;;;;;7.63;84.35;99025.66;125636;1102;22810;-60
2021/05/02 05:06:56;;;;;;;28.45;14.20;;;;;;;7.62;84.22;99018.56;125811;1096;27281;-62
2021/05/02 05:09:24;;;;;;;;;;;;;;;7.62;84.80;99018.56;125780;1101;22747;-62
2021/05/02 05:11:54;;;;;;;23.50;10.90;;;;;;;7.60;85.01;99019.05;125690;1101;21522;-62
2021/05/02 05:14:23;;;;;;;28.08;13.05;;;;;;;7.59;84.71;99023.09;125698;1096;26700;-63
2021/05/02 05:16:52;;;;;;;28.05;13.55;;;;;;;7.57;85.23;99022.05;125657;1096;26434;-62
2021/05/02 05:19:22;;;;;;;27.23;13.87;;;;;;;7.55;85.11;99019.00;125625;1101;22748;-62
2021/05/02 05:21:51;;;;;;;27.40;12.93;;;;;;;7.55;84.89;99024.55;125809;1096;26251;-61
2021/05/02 05:24:21;;;;;;;27.33;13.37;;;;;;;7.55;84.81;99021.78;125809;1101;22762;-62
2021/05/02 05:26:50;;;;;;;27.95;13.50;;;;;;;7.54;84.96;99017.46;125712;1101;23089;-62
2021/05/02 05:29:20;;;;;;;26.93;12.53;;;;;;;7.53;84.96;99015.95;125760;1101;22922;-63
2021/05/02 05:31:49;;;;;;;24.23;12.07;;;;;;;7.54;85.14;98998.02;125850;1101;22755;-62
2021/05/02 05:34:18;;;;;;;23.87;10.80;;;;;;;7.54;85.04;98979.35;125550;1102;22771;-63
2021/05/02 05:36:47;;;;;;;23.07;10.70;;;;;;;7.51;85.58;98952.55;125583;1096;25842;-62
2021/05/02 05:39:17;;;;;;;22.73;10.27;;;;;;;7.52;85.00;98931.87;125725;1097;25841;-62
2021/05/02 05:41:48;;;;;;;20.37;9.67;;;;;;;7.50;85.16;98923.27;125906;1101;22891;-63
2021/05/02 05:44:18;;;;;;;24.60;10.93;;;;;;;7.49;85.56;98901.55;125833;1101;22761;-63
2021/05/02 05:46:47;;;;;;;25.43;10.70;;;;;;;7.47;85.28;98896.46;125728;1101;22741;-63
2021/05/02 05:49:19;;;;;;;21.43;9.03;;;;;;;7.46;85.47;98880.30;125760;1096;22816;-63
2021/05/02 05:51:49;;;;;;;22.65;10.55;;;;;;;7.45;85.42;98868.42;125611;1096;22992;-61
2021/05/02 05:54:18;;;;;;;21.43;8.95;;;;;;;7.46;85.40;98863.64;125764;1101;22790;-61
2021/05/02 05:56:48;;;;;;;18.27;8.27;;;;;;;7.47;85.81;98851.30;125684;1101;22895;-60
2021/05/02 05:59:18;;;;;;;15.57;6.23;;;;;;;7.48;85.49;98852.80;125572;1104;22745;-60
2021/05/02 06:01:47;;;;;;;18.83;7.63;;;;;;;7.48;85.86;98848.02;125720;1101;22969;-59
2021/05/02 06:04:17;;;;;;;17.03;6.70;;;;;;;7.50;85.51;98841.97;125510;1096;27154;-58
2021/05/02 06:06:47;;;;;;;18.08;7.23;;;;;;;7.51;85.18;98843.51;125479;1104;22771;-58
2021/05/02 06:09:16;;;;;;;15.67;5.67;;;;;;;7.55;85.64;98852.38;125782;1101;22731;-58
2021/05/02 06:11:47;;;;;;;16.23;6.43;;;;;;;7.57;85.14;98855.42;125722;1101;24418;-57
2021/05/02 06:14:16;;;;;;;13.53;5.17;;;;;;;7.58;85.13;98854.15;125654;1096;24443;-58
2021/05/02 06:16:46;;;;;;;17.35;7.10;;;;;;;7.58;85.09;98849.36;125666;1102;22812;-58
2021/05/02 06:19:15;;;;;;;15.33;5.83;;;;;;;7.62;85.04;98851.91;125530;1096;25957;-58
2021/05/02 06:21:44;;;;;;;14.23;5.93;;;;;;;7.64;85.07;98843.84;125685;1096;26191;-57
2021/05/02 06:24:14;;;;;;;14.80;5.43;;;;;;;7.62;85.20;98832.47;125623;1096;22806;-58
2021/05/02 06:26:43;;;;;;;11.83;4.13;;;;;;;7.60;85.25;98838.53;125685;1096;27432;-61
2021/05/02 06:29:13;;;;;;;13.87;5.07;;;;;;;7.59;85.05;98839.03;125656;1101;22757;-60
2021/05/02 06:31:43;;;;;;;15.88;4.98;;;;;;;7.57;85.16;98839.53;125599;1101;22752;-63
2021/05/02 06:34:13;;;;;;;14.38;4.55;;;;;;;7.57;85.06;98835.98;126082;1101;22820;-62
2021/05/02 06:36:42;;;;;;;12.58;4.20;;;;;;;7.57;85.12;98841.53;125702;1096;26569;-62
2021/05/02 06:39:12;;;;;;;13.00;4.80;;;;;;;7.54;85.54;98839.73;125491;1096;25954;-62
2021/05/02 06:41:45;;;;;;;12.30;4.30;;;;;;;7.52;85.33;98842.23;125686;1101;22815;-62
2021/05/02 06:44:14;;;;;;;10.73;3.50;;;;;;;7.52;85.58;98839.45;129895;1101;22616;-62
2021/05/02 06:46:44;;;;;;;13.50;4.98;;;;;;;7.52;85.28;98854.11;129733;1104;22638;-60
2021/05/02 06:49:14;;;;;;;14.03;5.03;;;;;;;7.52;85.25;98858.90;126465;1096;25957;-60
2021/05/02 06:51:44;;;;;;;13.43;5.33;;;;;;;7.54;85.23;98870.28;125690;1101;22761;-61
2021/05/02 06:54:13;;;;;;;12.90;4.90;;;;;;;7.52;85.21;98865.22;125569;1104;22848;-61
2021/05/02 06:56:42;;;;;;;10.77;3.77;;;;;;;7.53;85.26;98852.11;125444;1104;22907;-61
2021/05/02 06:59:12;;;;;;;13.03;4.70;;;;;;;7.52;85.27;98856.13;125671;1096;22909;-61
2021/05/02 07:01:41;;;;;;;14.90;4.90;;;;;;;7.51;85.32;98857.39;125461;1104;22806;-61
2021/05/02 07:04:12;;;;;;;15.23;5.57;;;;;;;7.48;85.29;98848.02;125472;1104;22758;-62
2021/05/02 07:06:42;;;;;;;14.60;5.40;;;;;;;7.48;85.32;98850.80;125548;1096;24392;-61
2021/05/02 07:09:11;;;;;;;12.77;4.80;;;;;;;7.47;85.35;98845.74;125454;1104;22762;-62
2021/05/02 07:11:41;;;;;;;11.63;4.57;;;;;;;7.46;85.59;98852.53;125419;1104;24560;-60
2021/05/02 07:14:10;;;;;;;11.17;3.80;;;;;;;7.45;85.64;98845.47;125513;1096;25775;-62
2021/05/02 07:16:40;;;;;;;11.95;3.88;;;;;;;7.42;85.57;98852.77;125450;1096;26331;-61
2021/05/02 07:19:09;;;;;;;13.60;4.80;;;;;;;7.40;85.89;98852.49;125594;1101;22775;-62
2021/05/02 07:21:39;;;;;;;11.65;4.10;;;;;;;7.39;85.71;98861.32;125825;1096;26190;-60
2021/05/02 07:24:10;;;;;;;10.33;3.63;;;;;;;7.37;85.86;98852.72;125767;1104;24279;-59
2021/05/02 07:26:40;;;;;;;8.77;3.27;;;;;;;7.34;86.17;98848.91;125542;1104;23643;-61
2021/05/02 07:29:09;;;;;;;13.27;3.90;;;;;;;7.33;85.87;98850.91;125593;1101;22848;-59
2021/05/02 07:31:39;;;;;;;10.83;3.53;;;;;;;7.34;85.88;98835.77;125451;1096;26085;-61
2021/05/02 07:34:08;;;;;;;9.80;2.63;;;;;;;7.34;86.55;98844.09;125644;1102;22762;-60
2021/05/02 07:36:38;;;;;;;9.15;3.20;;;;;;;7.35;85.89;98840.08;125687;1096;22904;-60
2021/05/02 07:39:08;;;;;;;10.70;3.03;;;;;;;7.37;85.93;98831.25;125573;1096;27398;-60
2021/05/02 07:41:38;;;;;;;8.50;2.48;;;;;;;7.37;86.10;98825.70;125595;1104;23273;-60
2021/05/02 07:44:08;;;;;;;9.18;3.00;;;;;;;7.37;86.03;98824.96;125757;1096;26364;-61
2021/05/02 07:46:38;;;;;;;6.77;1.90;;;;;;;7.36;86.45;98829.74;125879;1101;22819;-59
2021/05/02 07:49:07;;;;;;;10.30;3.23;;;;;;;7.34;86.34;98821.89;125735;1102;22761;-61
2021/05/02 07:51:37;;;;;;;9.20;3.17;;;;;;;7.32;86.07;98823.66;125764;1096;27259;-61
2021/05/02 07:54:10;;;;;;;8.03;2.47;;;;;;;7.34;86.46;98823.92;125649;1104;23642;-60
2021/05/02 07:56:40;;;;;;;10.50;3.13;;;;;;;7.32;86.28;98821.61;125807;1103;22913;-62
2021/05/02 07:59:10;;;;;;;7.70;2.03;;;;;;;7.33;86.66;98817.59;125749;1101;22747;-61
2021/05/02 08:01:40;;;;;;;7.98;2.38;;;;;;;7.35;86.67;98822.66;125903;1102;22826;-61
2021/05/02 08:04:09;;;;;;;9.43;3.13;;;;;;;7.34;86.52;98818.38;125532;1101;23516;-60
2021/05/02 08:06:39;;;;;;;10.45;3.15;;;;;;;7.33;86.54;98816.83;125569;1102;23791;-61
2021/05/02 08:09:09;;;;;;;10.10;3.07;;;;;;;7.33;86.55;98814.05;125798;1101;22832;-60
2021/05/02 08:11:38;;;;;;;11.68;3.68;;;;;;;7.34;86.40;98807.27;125910;1096;27675;-58
2021/05/02 08:14:08;;;;;;;12.13;4.13;;;;;;;7.34;86.83;98816.33;125580;1104;22762;-58
2021/05/02 08:16:40;;;;;;;11.03;4.10;;;;;;;7.34;86.96;98808.00;125581;1096;24391;-58
2021/05/02 08:19:09;;;;;;;12.23;4.20;;;;;;;7.35;86.95;98815.09;125688;1102;22813;-60
2021/05/02 08:21:40;;;;;;;10.97;3.87;;;;;;;7.37;87.02;98825.70;125561;1104;22903;-62
2021/05/02 08:24:09;;;;;;;;;;;;;;;7.35;86.58;98828.97;125650;1101;22914;-61
2021/05/02 08:26:39;;;;;;;10.17;3.33;;;;;;;7.37;86.85;98836.06;125667;1096;23268;-60
2021/05/02 08:29:10;;;;;;;9.10;3.45;;;;;;;7.37;87.15;98839.58;125477;1096;23644;-61
2021/05/02 08:31:40;;;;;;;9.97;3.90;;;;;;;7.35;86.56;98842.85;125495;1096;27693;-58
2021/05/02 08:34:10;;;;;;;10.87;3.67;;;;;;;7.38;86.83;98849.45;125695;1102;23599;-58
2021/05/02 08:36:40;;;;;;;11.68;4.25;;;;;;;7.38;86.61;98849.45;125585;1096;27150;-58
2021/05/02 08:39:10;;;;;;;9.33;3.27;;;;;;;7.38;86.81;98852.22;125416;1104;22823;-55
2021/05/02 08:41:40;;;;;;;11.40;3.05;;;;;;;7.38;86.60;98859.78;125678;1096;22816;-59
2021/05/02 08:44:11;;;;;;;8.50;2.73;;;;;;;7.36;86.62;98871.39;125512;1104;22762;-57
2021/05/02 08:46:41;;;;;;;9.40;3.50;;;;;;;7.37;86.76;98880.48;125646;1096;27393;-60
2021/05/02 08:49:10;;;;;;;9.40;2.87;;;;;;;7.36;87.02;98876.94;125526;1101;22845;-58
2021/05/02 08:51:41;;;;;;;8.93;3.13;;;;;;;7.35;86.77;98878.95;125861;1102;23706;-63
2021/05/02 08:54:11;;;;;;;9.30;2.80;;;;;;;7.35;86.86;98880.95;125622;1102;23277;-54
2021/05/02 08:56:41;;;;;;;8.90;2.10;;;;;;;7.34;87.05;98880.19;125455;1096;25948;-58
2021/05/02 08:59:12;;;;;;;9.35;2.40;;;;;;;7.32;87.17;98891.02;125669;1104;22796;-57
2021/05/02 09:01:43;;;;;;;9.50;2.07;;;;;;;7.31;87.07;98883.95;125892;1096;24720;-60
2021/05/02 09:04:13;;;;;;;7.20;2.20;;;;;;;7.31;87.07;98883.95;125585;1096;23176;-58
2021/05/02 09:06:43;;;;;;;8.93;2.00;;;;;;;7.31;87.13;98883.95;125513;1101;22773;-58
2021/05/02 09:09:14;;;;;;;7.45;1.83;;;;;;;7.32;86.73;98891.02;125622;1096;25929;-59
2021/05/02 09:11:44;;;;;;;6.95;1.93;;;;;;;7.32;87.14;98890.28;125585;1096;26539;-57
2021/05/02 09:14:30;;;;;;;9.10;2.33;;;;;;;7.32;87.25;98896.56;125562;1096;26226;-58
2021/05/02 09:17:11;;;;;;;8.27;2.43;;;;;;;7.32;87.14;98907.67;125788;1096;27154;-58
2021/05/02 09:19:50;;;;;;;8.95;2.25;;;;;;;7.32;87.28;98904.16;125548;1096;27567;-59
2021/05/02 09:22:21;;;;;;;8.70;2.83;;;;;;;7.30;87.03;98912.95;125550;1096;27110;-57
2021/05/02 09:25:10;;;;;;;11.60;3.30;;;;;;;7.32;87.09;98913.23;125593;1101;22806;-58
2021/05/02 09:27:49;;;;;;;6.75;2.20;;;;;;;7.33;87.23;98920.31;125701;1101;23196;-59
2021/05/02 09:30:21;;;;;;;8.90;2.77;;;;;;;7.32;87.54;98924.33;125568;1101;22837;-57
2021/05/02 09:32:51;;;;;;;7.67;2.53;;;;;;;7.32;87.37;98924.33;125635;1102;22820;-58
2021/05/02 09:35:29;;;;;;;7.18;2.15;;;;;;;7.32;87.69;98924.33;125601;1096;27252;-59
2021/05/02 09:38:15;;;;;;;6.53;2.00;;;;;;;7.31;87.32;98933.16;125633;1096;27221;-60
2021/05/02 09:40:58;;;;;;;8.13;2.20;;;;;;;7.29;87.35;98933.65;125571;1101;22901;-60
2021/05/02 09:43:32;;;;;;;8.77;2.13;;;;;;;7.27;87.44;98943.71;125980;1096;25957;-57
2021/05/02 09:46:30;;;;;;;5.70;1.60;;;;;;;7.25;87.48;98948.98;125781;1096;27698;-59
2021/05/02 09:49:15;;;;;;;7.60;1.87;;;;;;;7.25;87.42;98958.09;125636;1102;22810;-58
2021/05/02 09:51:51;;;;;;;7.17;2.10;;;;;;;7.27;87.12;98969.46;125947;1096;22813;-59
2021/05/02 09:54:26;;;;;;;8.70;2.00;;;;;;;7.29;87.30;98969.73;125631;1104;22775;-61
2021/05/02 09:56:59;;;;;;;8.53;2.33;;;;;;;7.30;87.58;98976.80;125538;1101;22831;-60
2021/05/02 09:59:31;;;;;;;7.90;2.40;;;;;;;7.31;87.55;98975.56;125596;1101;22747;-61
2021/05/02 10:02:30;;;;;;;6.87;1.73;;;;;;;7.31;87.48;98975.56;125656;1096;22899;-60
2021/05/02 10:05:10;;;;;;;6.53;2.00;;;;;;;7.33;87.58;98973.06;125608;1102;22864;-60
2021/05/02 10:07:39;;;;;;;7.27;1.13;;;;;;;7.35;87.38;98990.00;125864;1101;22767;-62
2021/05/02 10:10:10;;;;;;;5.00;1.20;;;;;;;7.37;87.37;98988.77;124992;1097;27141;-62
2021/05/02 10:12:41;;;;;;;5.53;1.27;;;;;;;7.38;87.72;98988.27;129792;1101;22556;-63
2021/05/02 10:15:12;;;;;;;5.55;1.40;;;;;;;7.39;87.15;98986.26;125519;1096;28392;-63
2021/05/02 10:17:43;;;;;;;4.50;1.30;;;;;;;7.39;87.39;99014.77;129795;1101;22592;-62
2021/05/02 10:20:14;;;;;;;4.37;1.00;;;;;;;7.40;87.45;99001.66;129776;1101;22662;-61
2021/05/02 10:22:44;;;;;;;6.70;1.30;;;;;;;7.40;87.31;99012.76;129820;1101;22562;-62
2021/05/02 10:25:16;;;;;;;5.00;1.33;;;;;;;7.41;87.14;99020.59;129794;1101;22548;-61
2021/05/02 10:27:51;;;;;;;4.33;1.00;;;;;;;7.42;87.26;99013.03;129757;1101;23796;-59
2021/05/02 10:30:29;;;;;;;5.23;1.07;;;;;;;7.42;87.17;99019.36;129856;1101;22684;-60
2021/05/02 10:33:08;;;;;;;3.00;0.70;;;;;;;7.44;87.20;99035.52;129804;1101;22794;-60
2021/05/02 10:35:47;;;;;;;3.43;1.17;;;;;;;7.47;87.47;99040.86;129808;1101;22604;-60
2021/05/02 10:38:21;;;;;;;4.93;1.00;;;;;;;7.49;87.25;99049.47;129833;1101;22533;-60
2021/05/02 10:41:13;;;;;;;5.23;1.10;;;;;;;7.50;87.38;99055.78;129636;1102;22590;-59
2021/05/02 10:43:43;;;;;;;4.93;1.03;;;;;;;7.52;87.17;99058.84;129769;1101;22624;-60
2021/05/02 10:46:50;;;;;;;4.33;1.00;;;;;;;7.56;87.63;99070.50;129732;1101;22585;-60
2021/05/02 10:49:56;;;;;;;6.80;1.37;;;;;;;7.60;87.60;99090.50;129736;1101;22647;-59
2021/05/02 10:52:35;;;;;;;4.50;1.15;;;;;;;7.61;87.12;99086.48;129777;1102;22699;-59
2021/05/02 10:55:15;;;;;;;3.68;0.90;;;;;;;7.65;87.10;99107.25;127395;1102;24970;-60
2021/05/02 10:57:44;;;;;;;4.17;1.20;;;;;;;7.64;87.04;99094.59;129623;1104;22662;-58
2021/05/02 11:00:16;;;;;;;6.88;1.33;;;;;;;7.68;87.39;99114.59;129797;1101;22681;-61
2021/05/02 11:02:49;;;;;;;3.13;0.90;;;;;;;7.72;87.10;99125.48;129812;1101;22686;-61
2021/05/02 11:05:23;;;;;;;4.15;1.15;;;;;;;7.78;87.23;99132.64;125595;1101;22768;-58
2021/05/02 11:08:11;;;;;;;4.05;1.00;;;;;;;7.85;87.51;99121.13;127002;1096;22916;-61
2021/05/02 11:10:52;;;;;;;5.10;1.20;;;;;;;7.88;87.04;99131.25;125743;1096;26510;-65
2021/05/02 11:13:29;;;;;;;4.40;1.20;;;;;;;7.88;86.71;99128.47;126046;1101;22856;-60
2021/05/02 11:16:26;;;;;;;3.90;1.00;;;;;;;7.90;86.69;99128.75;125766;1101;22740;-60
2021/05/02 11:18:56;;;;;;;3.73;1.23;;;;;;;7.86;86.42;99133.01;125501;1101;22747;-58
2021/05/02 11:21:27;;;;;;;4.63;1.20;;;;;;;7.80;86.59;99140.52;125579;1096;27262;-64
2021/05/02 11:24:00;;;;;;;6.43;1.60;;;;;;;7.75;86.71;99153.08;129773;1101;23039;-67
2021/05/02 11:26:57;;;;;;;4.10;1.10;;;;;;;7.70;86.55;99159.31;129803;1101;22589;-65
2021/05/02 11:29:32;;;;;;;6.30;1.40;;;;;;;7.62;86.68;99149.10;129809;1101;22617;-65
2021/05/02 11:32:07;;;;;;;3.47;1.00;;;;;;;7.54;86.07;99154.31;126066;1101;23224;-64
2021/05/02 11:34:53;;;;;;;4.10;1.00;;;;;;;7.46;86.06;99167.08;126809;1101;22771;-64
2021/05/02 11:37:40;;;;;;;5.77;1.07;;;;;;;7.37;86.22;99178.30;129787;1102;22577;-66
2021/05/02 11:40:40;;;;;;;4.47;1.20;;;;;;;7.33;86.35;99184.06;126198;1096;22825;-62
2021/05/02 11:43:12;;;;;;;4.30;1.10;;;;;;;7.32;86.41;99192.88;125824;1101;22753;-59
2021/05/02 11:45:51;;;;;;;2.90;0.90;;;;;;;7.31;86.40;99192.11;125626;1101;22758;-58
2021/05/02 11:48:27;;;;;;;3.60;0.90;;;;;;;7.29;86.08;99191.83;125381;1096;25529;-62
2021/05/02 11:51:00;;;;;;;2.83;0.80;;;;;;;7.22;85.90;99211.64;129782;1101;23494;-63
2021/05/02 11:53:47;;;;;;;3.20;0.60;;;;;;;7.16;85.51;99218.34;127659;1097;22734;-62